Terminal Aerodrome Forecast
Issued by NWS Greer, SC

Home | Current Version | Previous Version | Text Only | Print | Product List | Glossary On
Versions: 1 2 3 4 5 6 7 8 9 10 11 12 13 14 15 16 17 18 19 20 21 22 23 24
000
FTUS42 KGSP 051823 AAB
TAFGSP
TAF AMD
KGSP 051823Z 0518/0618 34006KT P6SM -RA SCT008 BKN012 OVC050
      TEMPO 0519/0522 BKN006
     FM052200 01010G19KT P6SM OVC015
     FM060100 02011G19KT P6SM OVC025
     FM060400 02010KT P6SM BKN035
     FM060900 03008KT P6SM SCT100=

USA.gov is the U.S. government's official web portal to all federal, state and local government web resources and services.